createdAt,value
2023-05-06T00:01:40.176Z,100282.41
2023-05-06T00:04:43.385Z,100278.03
2023-05-06T00:07:46.400Z,100272.78
2023-05-06T00:10:49.257Z,100281.88
2023-05-06T00:13:51.897Z,100271.06
2023-05-06T00:16:54.658Z,100274.69
2023-05-06T00:19:58.690Z,100273.88
2023-05-06T00:23:01.455Z,100271.19
2023-05-06T00:26:04.095Z,100270.34
2023-05-06T00:29:06.907Z,100261.50
2023-05-06T00:32:09.557Z,100258.97
2023-05-06T00:35:12.467Z,100263.59
2023-05-06T00:38:19.522Z,100271.69
2023-05-06T00:41:22.282Z,100261.84
2023-05-06T00:44:25.310Z,100268.03
2023-05-06T00:47:28.088Z,100275.25
2023-05-06T00:50:32.579Z,100280.69
2023-05-06T00:53:35.973Z,100274.56
2023-05-06T00:56:38.478Z,100277.25
2023-05-06T00:59:42.426Z,100288.31
2023-05-06T01:02:47.822Z,100286.41
2023-05-06T01:06:09.121Z,100287.47
2023-05-06T01:09:15.007Z,100282.03
2023-05-06T01:12:45.288Z,100285.59
2023-05-06T01:15:51.700Z,100275.53
2023-05-06T01:18:55.388Z,100271.09
2023-05-06T01:22:01.329Z,100266.66
2023-05-06T01:25:04.888Z,100271.22
2023-05-06T01:28:10.487Z,100266.84
2023-05-06T01:31:18.276Z,100253.50
2023-05-06T01:34:34.688Z,100262.53
2023-05-06T01:37:56.095Z,100259.00
2023-05-06T01:40:59.986Z,100268.88
2023-05-06T01:44:04.470Z,100285.00
2023-05-06T01:47:08.979Z,100288.59
2023-05-06T01:50:11.903Z,100313.81
2023-05-06T01:53:14.613Z,100326.44
2023-05-06T01:56:17.637Z,100328.97
2023-05-06T01:59:20.357Z,100329.66
2023-05-06T02:02:24.322Z,100337.72
2023-05-06T02:05:27.269Z,100356.53
2023-05-06T02:08:30.255Z,100366.44
2023-05-06T02:11:33.557Z,100362.06
2023-05-06T02:14:36.683Z,100364.78
2023-05-06T02:17:40.069Z,100362.03
2023-05-06T02:20:42.882Z,100363.75
2023-05-06T02:23:50.739Z,100359.16
2023-05-06T02:26:53.254Z,100357.41
2023-05-06T02:29:56.015Z,100351.16
2023-05-06T02:32:58.490Z,100343.28
2023-05-06T02:36:01.301Z,100332.59
2023-05-06T02:39:04.753Z,100330.81
2023-05-06T02:42:07.795Z,100317.28
2023-05-06T02:45:11.142Z,100316.31
2023-05-06T02:48:14.125Z,100310.88
2023-05-06T02:51:16.631Z,100317.03
2023-05-06T02:54:19.525Z,100315.19
2023-05-06T02:57:22.051Z,100317.88
2023-05-06T03:00:24.886Z,100322.44
2023-05-06T03:03:27.445Z,100319.72
2023-05-06T03:06:31.546Z,100315.13
2023-05-06T03:09:34.443Z,100290.97
2023-05-06T03:12:37.419Z,100322.97
2023-05-06T03:15:39.998Z,100319.94
2023-05-06T03:18:43.046Z,100311.78
2023-05-06T03:21:46.746Z,100318.87
2023-05-06T03:24:50.790Z,100312.44
2023-05-06T03:27:53.404Z,100307.84
2023-05-06T03:30:56.612Z,100292.59
2023-05-06T03:33:59.381Z,100295.31
2023-05-06T03:37:02.579Z,100298.06
2023-05-06T03:40:06.201Z,100293.66
2023-05-06T03:43:09.391Z,100298.09
2023-05-06T03:46:12.914Z,100299.84
2023-05-06T03:49:15.778Z,100290.03
2023-05-06T03:52:18.441Z,100284.59
2023-05-06T03:55:21.448Z,100294.47
2023-05-06T03:58:24.095Z,100295.28
2023-05-06T04:01:27.258Z,100296.81
2023-05-06T04:04:30.393Z,100302.94
2023-05-06T04:07:33.025Z,100305.53
2023-05-06T04:10:40.323Z,100299.09
2023-05-06T04:13:44.063Z,100291.91
2023-05-06T04:16:47.627Z,100300.84
2023-05-06T04:19:50.142Z,100311.66
2023-05-06T04:22:53.039Z,100308.03
2023-05-06T04:25:58.010Z,100310.88
2023-05-06T04:29:07.052Z,100311.78
2023-05-06T04:32:11.733Z,100315.34
2023-05-06T04:35:15.383Z,100316.22
2023-05-06T04:38:18.430Z,100319.78
2023-05-06T04:41:22.196Z,100325.09
2023-05-06T04:44:25.187Z,100323.12
2023-05-06T04:47:28.781Z,100315.00
2023-05-06T04:50:32.293Z,100325.75
2023-05-06T04:53:35.176Z,100321.31
2023-05-06T04:56:38.214Z,100323.25
2023-05-06T04:59:42.627Z,100325.94
2023-05-06T05:02:45.744Z,100310.69
2023-05-06T05:05:49.906Z,100308.78
2023-05-06T05:08:55.312Z,100307.81
2023-05-06T05:11:58.861Z,100296.81
2023-05-06T05:15:02.060Z,100297.56
2023-05-06T05:18:06.081Z,100305.37
2023-05-06T05:21:08.921Z,100315.84
2023-05-06T05:24:12.316Z,100318.28
2023-05-06T05:27:15.016Z,100323.22
2023-05-06T05:30:18.452Z,100330.16
2023-05-06T05:33:21.653Z,100332.81
2023-05-06T05:36:24.907Z,100332.75
2023-05-06T05:39:28.400Z,100337.22
2023-05-06T05:42:33.782Z,100346.50
2023-05-06T05:45:38.093Z,100344.78
2023-05-06T05:48:41.957Z,100346.13
2023-05-06T05:51:46.241Z,100336.78
2023-05-06T05:54:50.859Z,100335.84
2023-05-06T05:57:53.895Z,100347.41
2023-05-06T06:00:56.948Z,100350.06
2023-05-06T06:04:00.701Z,100364.16
2023-05-06T06:07:03.364Z,100356.81
2023-05-06T06:10:07.221Z,100347.81
2023-05-06T06:13:09.838Z,100347.47
2023-05-06T06:16:12.954Z,100352.66
2023-05-06T06:19:15.950Z,100355.19
2023-05-06T06:22:19.059Z,100355.00
2023-05-06T06:25:22.212Z,100350.41
2023-05-06T06:28:25.098Z,100346.91
2023-05-06T06:31:29.437Z,100349.34
2023-05-06T06:34:32.418Z,100354.44
2023-05-06T06:37:34.865Z,100354.06
2023-05-06T06:40:37.628Z,100355.84
2023-05-06T06:43:40.203Z,100359.16
2023-05-06T06:46:43.187Z,100358.19
2023-05-06T06:49:46.183Z,100367.19
2023-05-06T06:52:49.204Z,100366.31
2023-05-06T06:55:51.725Z,100359.88
2023-05-06T06:58:54.691Z,100350.94
2023-05-06T07:05:03.684Z,100361.81
2023-05-06T07:08:07.050Z,100356.00
2023-05-06T07:11:10.050Z,100364.06
2023-05-06T07:14:13.597Z,100361.22
2023-05-06T07:17:16.504Z,100365.13
2023-05-06T07:20:19.157Z,100379.91
2023-05-06T07:23:22.085Z,100381.56
2023-05-06T07:26:24.913Z,100381.47
2023-05-06T07:29:27.854Z,100386.88
2023-05-06T07:32:30.895Z,100394.28
2023-05-06T07:35:33.775Z,100385.59
2023-05-06T07:38:36.372Z,100388.34
2023-05-06T07:41:39.527Z,100399.19
2023-05-06T07:44:42.225Z,100392.28
2023-05-06T07:47:45.390Z,100386.78
2023-05-06T07:50:47.989Z,100390.44
2023-05-06T07:53:51.075Z,100381.62
2023-05-06T07:56:53.627Z,100370.06
2023-05-06T07:59:58.450Z,100372.06
2023-05-06T08:03:01.349Z,100384.69
2023-05-06T08:06:06.873Z,100383.66
2023-05-06T08:09:14.794Z,100381.72
2023-05-06T08:12:22.816Z,100364.75
2023-05-06T08:15:25.385Z,100365.91
2023-05-06T08:18:28.430Z,100367.91
2023-05-06T08:21:31.258Z,100363.53
2023-05-06T08:24:34.024Z,100361.72
2023-05-06T08:27:36.599Z,100366.25
2023-05-06T08:30:39.461Z,100375.06
2023-05-06T08:33:41.988Z,100370.50
2023-05-06T08:36:45.026Z,100380.50
2023-05-06T08:39:47.853Z,100381.19
2023-05-06T08:42:50.886Z,100388.25
2023-05-06T08:45:54.788Z,100390.97
2023-05-06T08:48:58.876Z,100384.53
2023-05-06T08:52:04.727Z,100385.97
2023-05-06T08:55:09.078Z,100379.25
2023-05-06T08:58:15.792Z,100384.22
2023-05-06T09:01:21.250Z,100381.34
2023-05-06T09:04:23.925Z,100394.72
2023-05-06T09:07:27.687Z,100386.31
2023-05-06T09:10:42.435Z,100390.34
2023-05-06T09:13:45.703Z,100390.59
2023-05-06T09:16:50.574Z,100388.91
2023-05-06T09:19:59.437Z,100386.16
2023-05-06T09:23:02.691Z,100390.47
2023-05-06T09:26:05.574Z,100376.69
2023-05-06T09:29:08.658Z,100394.91
2023-05-06T09:32:14.567Z,100388.16
2023-05-06T09:35:17.104Z,100390.81
2023-05-06T09:38:21.056Z,100383.28
2023-05-06T09:41:25.672Z,100386.72
2023-05-06T09:44:29.233Z,100380.47
2023-05-06T09:47:35.746Z,100383.28
2023-05-06T09:50:38.588Z,100373.50
2023-05-06T09:53:41.652Z,100377.44
2023-05-06T09:56:44.520Z,100375.25
2023-05-06T09:59:48.214Z,100364.44
2023-05-06T10:02:54.788Z,100367.41
2023-05-06T10:06:02.044Z,100369.16
2023-05-06T10:09:07.315Z,100373.94
2023-05-06T10:12:10.548Z,100364.47
2023-05-06T10:15:13.314Z,100366.31
2023-05-06T10:18:17.773Z,100374.25
2023-05-06T10:21:22.657Z,100369.47
2023-05-06T10:24:31.698Z,100360.59
2023-05-06T10:27:36.115Z,100356.44
2023-05-06T10:30:40.347Z,100353.94
2023-05-06T10:33:47.315Z,100351.47
2023-05-06T10:36:57.635Z,100344.47
2023-05-06T10:40:00.449Z,100343.84
2023-05-06T10:43:23.294Z,100336.44
2023-05-06T10:46:28.345Z,100334.34
2023-05-06T10:49:31.108Z,100333.44
2023-05-06T10:52:46.602Z,100337.81
2023-05-06T10:56:07.256Z,100325.72
2023-05-06T10:59:11.913Z,100325.06
2023-05-06T11:02:18.773Z,100322.28
2023-05-06T11:05:22.367Z,100319.59
2023-05-06T11:08:26.500Z,100316.47
2023-05-06T11:12:04.007Z,100318.06
2023-05-06T11:15:26.887Z,100316.00
2023-05-06T11:18:29.417Z,100312.69
2023-05-06T11:21:32.576Z,100310.78
2023-05-06T11:24:42.575Z,100309.66
2023-05-06T11:27:45.526Z,100314.50
2023-05-06T11:30:55.011Z,100308.78
2023-05-06T11:33:59.815Z,100302.25
2023-05-06T11:37:07.275Z,100297.19
2023-05-06T11:40:16.362Z,100306.00
2023-05-06T11:43:18.986Z,100298.16
2023-05-06T11:46:23.641Z,100301.31
2023-05-06T11:49:27.438Z,100298.59
2023-05-06T11:52:30.711Z,100295.06
2023-05-06T11:55:33.247Z,100299.13
2023-05-06T11:58:36.598Z,100287.84
2023-05-06T12:01:41.595Z,100292.38
2023-05-06T12:04:46.528Z,100283.69
2023-05-06T12:07:49.223Z,100280.22
2023-05-06T12:10:52.901Z,100277.63
2023-05-06T12:13:55.763Z,100271.37
2023-05-06T12:16:58.579Z,100265.59
2023-05-06T12:20:01.251Z,100257.09
2023-05-06T12:23:15.464Z,100270.09
2023-05-06T12:26:19.479Z,100259.94
2023-05-06T12:29:22.375Z,100255.09
2023-05-06T12:32:24.861Z,100249.97
2023-05-06T12:35:29.342Z,100246.41
2023-05-06T12:38:32.359Z,100250.16
2023-05-06T12:41:37.660Z,100250.03
2023-05-06T12:44:40.286Z,100236.19
2023-05-06T12:47:57.097Z,100232.06
2023-05-06T12:50:59.648Z,100228.09
2023-05-06T12:54:04.875Z,100233.97
2023-05-06T12:57:07.550Z,100228.13
2023-05-06T13:00:11.170Z,100226.38
2023-05-06T13:03:14.174Z,100219.44
2023-05-06T13:06:17.045Z,100212.41
2023-05-06T13:09:19.731Z,100213.63
2023-05-06T13:12:22.634Z,100205.03
2023-05-06T13:15:25.352Z,100205.00
2023-05-06T13:18:29.514Z,100201.06
2023-05-06T13:21:32.323Z,100197.22
2023-05-06T13:24:35.104Z,100209.56
2023-05-06T13:27:38.265Z,100202.16
2023-05-06T13:30:41.389Z,100185.72
2023-05-06T13:33:43.887Z,100196.87
2023-05-06T13:36:49.341Z,100187.50
2023-05-06T13:39:51.904Z,100167.56
2023-05-06T13:42:56.316Z,100168.63
2023-05-06T13:45:58.877Z,100159.94
2023-05-06T13:49:01.711Z,100164.56
2023-05-06T13:52:05.789Z,100180.56
2023-05-06T13:55:11.179Z,100208.34
2023-05-06T13:58:13.862Z,100238.38
2023-05-06T14:01:16.803Z,100230.91
2023-05-06T14:04:19.674Z,100275.03
2023-05-06T14:07:22.132Z,100258.88
2023-05-06T14:10:25.036Z,100262.81
2023-05-06T14:13:27.718Z,100269.72
2023-05-06T14:16:30.695Z,100265.41
2023-05-06T14:19:33.224Z,100245.81
2023-05-06T14:22:37.770Z,100255.56
2023-05-06T14:25:40.323Z,100257.66
2023-05-06T14:28:43.210Z,100265.47
2023-05-06T14:31:45.892Z,100254.28
2023-05-06T14:34:50.641Z,100253.03
2023-05-06T14:37:53.983Z,100242.97
2023-05-06T14:40:59.320Z,100239.31
2023-05-06T14:44:02.116Z,100234.53
2023-05-06T14:47:04.952Z,100234.72
2023-05-06T14:50:11.767Z,100223.84
2023-05-06T14:53:14.582Z,100224.72
2023-05-06T14:56:17.242Z,100237.37
2023-05-06T14:59:22.670Z,100232.19
2023-05-06T15:02:25.640Z,100236.03
2023-05-06T15:05:28.614Z,100228.44
2023-05-06T15:08:31.525Z,100219.38
2023-05-06T15:11:34.372Z,100236.25
2023-05-06T15:14:38.342Z,100247.03
2023-05-06T15:17:41.854Z,100248.31
2023-05-06T15:20:44.456Z,100240.28
2023-05-06T15:23:47.888Z,100246.06
2023-05-06T15:26:50.394Z,100254.25
2023-05-06T15:29:53.193Z,100259.34
2023-05-06T15:32:55.848Z,100261.25
2023-05-06T15:35:58.990Z,100274.37
2023-05-06T15:39:01.901Z,100278.63
2023-05-06T15:42:05.227Z,100301.56
2023-05-06T15:45:08.174Z,100288.25
2023-05-06T15:48:11.131Z,100274.84
2023-05-06T15:51:13.732Z,100276.09
2023-05-06T15:54:18.462Z,100278.41
2023-05-06T15:57:20.954Z,100280.13
2023-05-06T16:00:24.165Z,100280.34
2023-05-06T16:03:27.090Z,100270.38
2023-05-06T16:06:29.623Z,100273.38
2023-05-06T16:09:32.434Z,100267.44
2023-05-06T16:12:35.239Z,100268.78
2023-05-06T16:15:39.663Z,100254.22
2023-05-06T16:18:42.196Z,100254.34
2023-05-06T16:21:45.394Z,100241.81
2023-05-06T16:24:48.112Z,100233.47
2023-05-06T16:27:51.025Z,100236.56
2023-05-06T16:30:54.071Z,100229.47
2023-05-06T16:33:57.091Z,100229.53
2023-05-06T16:37:00.608Z,100238.69
2023-05-06T16:40:04.822Z,100246.09
2023-05-06T16:43:07.433Z,100241.53
2023-05-06T16:46:11.822Z,100242.44
2023-05-06T16:49:15.545Z,100250.06
2023-05-06T16:52:18.967Z,100249.50
2023-05-06T16:55:21.923Z,100242.34
2023-05-06T16:58:24.717Z,100236.31
2023-05-06T17:01:27.277Z,100241.09
2023-05-06T17:04:30.136Z,100234.13
2023-05-06T17:07:32.597Z,100229.81
2023-05-06T17:10:35.529Z,100229.09
2023-05-06T17:13:38.109Z,100225.97
2023-05-06T17:16:43.145Z,100229.84
2023-05-06T17:19:45.842Z,100232.66
2023-05-06T17:22:49.259Z,100233.91
2023-05-06T17:25:52.058Z,100233.19
2023-05-06T17:28:54.852Z,100233.34
2023-05-06T17:31:57.450Z,100236.28
2023-05-06T17:35:01.152Z,100229.25
2023-05-06T17:38:03.973Z,100233.81
2023-05-06T17:41:06.755Z,100230.31
2023-05-06T17:44:09.493Z,100228.59
2023-05-06T17:47:12.746Z,100246.50
2023-05-06T17:50:15.295Z,100254.75
2023-05-06T17:53:18.121Z,100265.50
2023-05-06T17:56:20.662Z,100256.75
2023-05-06T17:59:25.283Z,100261.66
2023-05-06T18:02:28.749Z,100263.81
2023-05-06T18:05:31.592Z,100261.56
2023-05-06T18:08:34.054Z,100269.19
2023-05-06T18:11:38.222Z,100253.44
2023-05-06T18:14:41.100Z,100278.41
2023-05-06T18:17:43.988Z,100274.31
2023-05-06T18:20:46.563Z,100269.09
2023-05-06T18:23:51.442Z,100268.78
2023-05-06T18:26:56.320Z,100271.75
2023-05-06T18:29:59.430Z,100280.53
2023-05-06T18:33:02.047Z,100282.25
2023-05-06T18:36:05.285Z,100285.09
2023-05-06T18:39:07.965Z,100294.09
2023-05-06T18:42:11.419Z,100292.66
2023-05-06T18:45:14.116Z,100297.09
2023-05-06T18:48:16.896Z,100309.09
2023-05-06T18:51:19.968Z,100307.38
2023-05-06T18:54:23.912Z,100310.19
2023-05-06T18:57:27.006Z,100304.84
2023-05-06T19:00:30.582Z,100320.09
2023-05-06T19:03:37.434Z,100318.41
2023-05-06T19:06:40.362Z,100312.94
2023-05-06T19:09:43.176Z,100314.53
2023-05-06T19:12:46.043Z,100316.50
2023-05-06T19:15:48.706Z,100306.47
2023-05-06T19:18:51.735Z,100304.59
2023-05-06T19:21:54.349Z,100311.91
2023-05-06T19:24:57.126Z,100321.00
2023-05-06T19:27:59.743Z,100315.59
2023-05-06T19:31:08.587Z,100321.09
2023-05-06T19:34:11.139Z,100331.06
2023-05-06T19:37:13.986Z,100332.00
2023-05-06T19:40:18.833Z,100343.88
2023-05-06T19:43:23.039Z,100347.47
2023-05-06T19:46:25.983Z,100350.09
2023-05-06T19:49:30.452Z,100341.16
2023-05-06T19:52:34.813Z,100336.75
2023-05-06T19:55:37.828Z,100335.87
2023-05-06T19:58:40.671Z,100339.31
2023-05-06T20:01:44.293Z,100333.06
2023-05-06T20:04:47.193Z,100334.94
2023-05-06T20:07:50.672Z,100323.44
2023-05-06T20:10:53.460Z,100323.53
2023-05-06T20:13:56.157Z,100320.06
2023-05-06T20:16:59.117Z,100319.28
2023-05-06T20:20:09.243Z,100315.63
2023-05-06T20:23:12.333Z,100322.97
2023-05-06T20:26:14.832Z,100320.41
2023-05-06T20:29:17.854Z,100314.13
2023-05-06T20:32:20.658Z,100315.97
2023-05-06T20:35:23.711Z,100315.03
2023-05-06T20:38:27.397Z,100302.50
2023-05-06T20:41:31.620Z,100308.75
2023-05-06T20:44:34.884Z,100315.22
2023-05-06T20:47:37.775Z,100317.00
2023-05-06T20:50:40.328Z,100323.25
2023-05-06T20:53:43.579Z,100326.09
2023-05-06T20:56:46.111Z,100342.41
2023-05-06T20:59:52.500Z,100336.28
2023-05-06T21:02:55.275Z,100339.03
2023-05-06T21:05:58.129Z,100324.72
2023-05-06T21:09:01.178Z,100333.84
2023-05-06T21:12:04.655Z,100335.66
2023-05-06T21:15:07.797Z,100328.66
2023-05-06T21:18:13.834Z,100333.34
2023-05-06T21:21:16.692Z,100331.53
2023-05-06T21:24:19.291Z,100331.53
2023-05-06T21:27:22.034Z,100327.81
2023-05-06T21:30:24.507Z,100333.22
2023-05-06T21:33:27.410Z,100325.03
2023-05-06T21:36:29.921Z,100330.47
2023-05-06T21:39:32.771Z,100329.56
2023-05-06T21:42:35.992Z,100324.16
2023-05-06T21:45:38.904Z,100325.97
2023-05-06T21:48:41.508Z,100326.00
2023-05-06T21:51:44.379Z,100325.00
2023-05-06T21:54:47.219Z,100320.28
2023-05-06T21:57:50.814Z,100322.00
2023-05-06T22:00:53.364Z,100332.00
2023-05-06T22:03:56.360Z,100327.47
2023-05-06T22:06:59.126Z,100336.34
2023-05-06T22:10:01.916Z,100343.66
2023-05-06T22:13:04.561Z,100340.16
2023-05-06T22:16:07.843Z,100333.00
2023-05-06T22:19:14.294Z,100342.00
2023-05-06T22:22:17.164Z,100333.69
2023-05-06T22:25:19.942Z,100336.34
2023-05-06T22:28:22.686Z,100329.25
2023-05-06T22:31:26.609Z,100351.84
2023-05-06T22:34:29.520Z,100332.00
2023-05-06T22:37:31.983Z,100331.13
2023-05-06T22:40:34.778Z,100335.72
2023-05-06T22:43:37.352Z,100337.62
2023-05-06T22:46:40.129Z,100323.28
2023-05-06T22:49:43.041Z,100326.91
2023-05-06T22:52:45.834Z,100316.31
2023-05-06T22:55:48.663Z,100325.37
2023-05-06T22:58:51.711Z,100326.28
2023-05-06T23:01:54.778Z,100327.22
2023-05-06T23:04:59.347Z,100325.50
2023-05-06T23:08:01.791Z,100318.34
2023-05-06T23:11:05.044Z,100327.44
2023-05-06T23:14:08.187Z,100317.50
2023-05-06T23:17:11.169Z,100315.72
2023-05-06T23:20:13.839Z,100306.69
2023-05-06T23:23:16.805Z,100296.84
2023-05-06T23:26:19.336Z,100299.69
2023-05-06T23:29:23.083Z,100292.56
2023-05-06T23:32:26.605Z,100307.22
2023-05-06T23:35:29.410Z,100298.28
2023-05-06T23:38:32.002Z,100305.69
2023-05-06T23:41:34.803Z,100300.34
2023-05-06T23:44:37.303Z,100300.22
2023-05-06T23:47:40.911Z,100310.94
2023-05-06T23:50:43.540Z,100295.72
2023-05-06T23:53:46.477Z,100295.53
2023-05-06T23:56:49.154Z,100299.00
2023-05-06T23:59:51.983Z,100300.03
